Time;durP1;ratioP1;P1;durP2;ratioP2;P2;SDS_P1;SDS_P2;PMS_P1;PMS_P2;Temp;Humidity;BMP_temperature;BMP_pressure;BME280_temperature;BME280_humidity;BME280_pressure;Samples;Min_cycle;Max_cycle;Signal;HPM_P1;HPM_P2
2022/06/18 00:00:23;;;;;;;5.18;4.28;;;20.00;99.90;;;;;;5100062;28;20396;-77
2022/06/18 00:02:49;;;;;;;5.63;3.90;;;20.00;99.90;;;;;;5103661;28;20506;-77
2022/06/18 00:05:18;;;;;;;6.40;4.25;;;20.00;99.90;;;;;;5074980;28;20758;-77
2022/06/18 00:07:47;;;;;;;5.53;4.10;;;19.90;99.90;;;;;;5047115;28;20427;-77
2022/06/18 00:10:17;;;;;;;7.00;4.20;;;19.90;99.90;;;;;;5040999;28;20405;-77
2022/06/18 00:15:35;;;;;;;5.78;4.15;;;19.90;99.90;;;;;;5008202;28;20413;-76
2022/06/18 00:18:01;;;;;;;6.93;4.23;;;19.80;99.90;;;;;;5007032;28;20479;-77
2022/06/18 00:20:32;;;;;;;5.45;4.00;;;19.80;99.90;;;;;;5008899;28;20413;-76
2022/06/18 00:23:00;;;;;;;4.60;4.00;;;19.70;99.90;;;;;;5015138;28;20506;-76
2022/06/18 00:25:31;;;;;;;6.75;4.40;;;19.70;99.90;;;;;;4999650;28;20925;-77
2022/06/18 00:27:57;;;;;;;5.47;4.15;;;19.70;99.90;;;;;;5015950;28;20413;-77
2022/06/18 00:30:25;;;;;;;6.15;4.22;;;19.70;99.90;;;;;;5011713;28;20420;-77
2022/06/18 00:32:51;;;;;;;6.35;4.32;;;19.60;99.90;;;;;;5013863;28;20410;-76
2022/06/18 00:35:17;;;;;;;7.57;4.43;;;19.60;99.90;;;;;;5008697;28;20408;-77
2022/06/18 00:37:44;;;;;;;6.13;4.03;;;19.60;99.90;;;;;;5011491;28;20412;-77
2022/06/18 00:40:15;;;;;;;5.53;4.20;;;19.50;99.90;;;;;;5007569;28;20409;-76
2022/06/18 00:42:42;;;;;;;6.00;4.00;;;19.50;99.90;;;;;;5011894;28;20436;-76
2022/06/18 00:45:15;;;;;;;8.13;4.30;;;19.50;99.90;;;;;;5009009;28;20428;-76
2022/06/18 00:47:54;;;;;;;4.78;4.18;;;19.50;99.90;;;;;;5008216;28;20795;-76
2022/06/18 00:50:29;;;;;;;5.65;4.85;;;19.50;99.90;;;;;;5008619;28;20472;-76
2022/06/18 00:53:22;;;;;;;7.15;4.63;;;19.40;99.90;;;;;;5010499;28;20779;-77
2022/06/18 00:55:55;;;;;;;6.28;4.85;;;19.40;99.90;;;;;;5007182;28;20821;-76
2022/06/18 00:58:33;;;;;;;6.32;4.63;;;19.40;99.90;;;;;;5006839;28;20551;-76
2022/06/18 01:00:59;;;;;;;6.93;5.13;;;19.40;99.90;;;;;;5009540;28;20429;-76
2022/06/18 01:03:27;;;;;;;9.07;5.60;;;19.30;99.90;;;;;;5007069;28;20462;-76
2022/06/18 01:05:56;;;;;;;7.53;5.10;;;19.30;99.90;;;;;;5009287;28;20420;-76
2022/06/18 01:08:25;;;;;;;6.03;4.95;;;19.30;99.90;;;;;;5006640;28;20895;-76
2022/06/18 01:11:04;;;;;;;7.88;5.00;;;19.30;99.90;;;;;;5043947;28;20426;-77
2022/06/18 01:13:37;;;;;;;8.82;5.15;;;19.20;99.90;;;;;;5034128;28;20436;-76
2022/06/18 01:16:04;;;;;;;6.05;4.68;;;19.20;99.90;;;;;;5037206;28;20409;-77
2022/06/18 01:18:31;;;;;;;6.15;4.57;;;19.20;99.90;;;;;;5093362;28;20404;-77
2022/06/18 01:21:07;;;;;;;7.63;5.07;;;19.20;99.90;;;;;;5107950;28;20789;-76
2022/06/18 01:23:59;;;;;;;7.95;5.43;;;19.20;99.90;;;;;;5010771;28;20463;-77
2022/06/18 01:26:27;;;;;;;7.95;5.22;;;19.20;99.90;;;;;;5005937;28;20817;-77
2022/06/18 01:28:52;;;;;;;7.95;5.30;;;19.20;99.90;;;;;;5005916;28;20420;-77
2022/06/18 01:31:18;;;;;;;8.82;5.30;;;19.10;99.90;;;;;;5019734;28;20755;-77
2022/06/18 01:33:43;;;;;;;6.95;5.32;;;19.10;99.90;;;;;;5107456;28;20403;-77
2022/06/18 01:36:11;;;;;;;8.47;5.67;;;19.10;99.90;;;;;;5088344;28;20433;-77
2022/06/18 01:38:41;;;;;;;10.43;5.50;;;19.10;99.90;;;;;;5058817;28;20436;-76
2022/06/18 01:44:23;;;;;;;8.45;5.20;;;19.10;99.90;;;;;;5047717;28;20425;-76
2022/06/18 01:46:52;;;;;;;7.97;5.50;;;19.10;99.90;;;;;;5017170;28;20902;-77
2022/06/18 01:49:25;;;;;;;6.88;5.43;;;19.00;99.90;;;;;;5028854;28;20449;-77
2022/06/18 01:51:53;;;;;;;7.25;5.50;;;19.10;99.90;;;;;;5007988;28;20405;-77
2022/06/18 01:54:30;;;;;;;6.28;5.47;;;19.10;99.90;;;;;;5066885;28;20412;-77
2022/06/18 01:56:59;;;;;;;7.50;5.78;;;19.10;99.90;;;;;;5107089;28;20404;-77
2022/06/18 01:59:40;;;;;;;7.18;6.13;;;19.00;99.90;;;;;;5053788;28;20424;-77
2022/06/18 02:02:06;;;;;;;6.95;5.93;;;19.00;99.90;;;;;;5103238;28;20416;-77
2022/06/18 02:04:33;;;;;;;6.95;5.68;;;19.00;99.90;;;;;;5106508;28;20956;-77
2022/06/18 02:06:59;;;;;;;8.23;5.72;;;19.00;99.90;;;;;;5106500;28;20953;-78
2022/06/18 02:09:47;;;;;;;10.40;6.40;;;19.00;99.90;;;;;;5087643;28;20415;-77
2022/06/18 02:12:25;;;;;;;9.75;6.18;;;19.00;99.90;;;;;;5054040;28;20444;-77
2022/06/18 02:14:58;;;;;;;7.70;5.90;;;19.00;99.90;;;;;;5039147;28;20468;-77
2022/06/18 02:17:26;;;;;;;7.13;6.00;;;19.00;99.90;;;;;;5015214;28;20405;-76
2022/06/18 02:20:00;;;;;;;7.97;6.03;;;19.00;99.90;;;;;;5017068;28;20498;-77
2022/06/18 02:22:34;;;;;;;9.20;6.40;;;19.00;99.90;;;;;;5010644;28;20433;-77
2022/06/18 02:25:00;;;;;;;7.28;6.22;;;19.00;99.90;;;;;;5005090;28;20520;-77
2022/06/18 02:27:26;;;;;;;8.50;6.28;;;18.90;99.90;;;;;;5007126;28;20808;-76
2022/06/18 02:29:53;;;;;;;10.27;6.93;;;18.90;99.90;;;;;;5006565;28;20410;-76
2022/06/18 02:32:28;;;;;;;8.93;6.93;;;18.90;99.90;;;;;;5006435;28;20502;-76
2022/06/18 02:34:54;;;;;;;9.68;7.80;;;18.90;99.90;;;;;;5054464;28;20428;-76
2022/06/18 02:37:25;;;;;;;10.07;7.73;;;18.90;99.90;;;;;;5090018;28;20493;-76
2022/06/18 02:39:53;;;;;;;10.60;8.30;;;18.90;99.90;;;;;;5059555;28;20457;-77
2022/06/18 02:42:19;;;;;;;9.30;8.32;;;19.00;99.90;;;;;;5104876;28;20427;-78
2022/06/18 02:44:47;;;;;;;10.00;8.73;;;19.00;99.90;;;;;;5105465;28;20758;-77
2022/06/18 02:47:14;;;;;;;10.70;9.20;;;19.00;99.90;;;;;;5103374;28;20877;-78
2022/06/18 02:49:45;;;;;;;12.10;9.07;;;19.00;99.90;;;;;;5014891;28;20425;-77
2022/06/18 02:52:12;;;;;;;11.47;9.10;;;19.10;99.90;;;;;;5000041;28;20437;-77
2022/06/18 02:54:38;;;;;;;13.02;9.55;;;19.10;99.90;;;;;;5026128;28;20767;-76
2022/06/18 02:57:09;;;;;;;11.43;9.80;;;19.10;99.90;;;;;;5005162;28;20411;-77
2022/06/18 02:59:35;;;;;;;12.03;9.50;;;19.00;99.90;;;;;;5012689;28;20421;-76
2022/06/18 03:02:01;;;;;;;13.05;10.07;;;19.00;99.90;;;;;;5110266;28;20403;-77
2022/06/18 03:04:26;;;;;;;13.50;10.60;;;19.00;99.90;;;;;;5109531;28;20403;-76
2022/06/18 03:06:52;;;;;;;13.50;10.93;;;19.00;99.90;;;;;;5069571;28;20413;-76
2022/06/18 03:09:17;;;;;;;12.83;10.30;;;19.00;99.90;;;;;;5008025;28;20458;-77
2022/06/18 03:14:27;;;;;;;12.75;11.35;;;18.90;99.90;;;;;;5009595;28;20933;-76
2022/06/18 03:16:53;;;;;;;16.55;12.10;;;18.90;99.90;;;;;;5109786;28;20392;-77
2022/06/18 03:19:36;;;;;;;15.75;12.40;;;18.80;99.90;;;;;;5108203;28;20400;-75
2022/06/18 03:22:16;;;;;;;13.98;12.48;;;18.80;99.90;;;;;;5059347;28;20405;-74
2022/06/18 03:24:42;;;;;;;14.82;13.02;;;18.70;99.90;;;;;;4990160;28;20417;-75
2022/06/18 03:27:09;;;;;;;16.10;12.93;;;18.70;99.90;;;;;;5007063;28;20413;-75
2022/06/18 03:29:35;;;;;;;17.17;12.82;;;18.60;99.90;;;;;;5066197;28;20396;-75
2022/06/18 03:32:01;;;;;;;17.60;13.37;;;18.50;99.90;;;;;;5107607;28;20913;-74
2022/06/18 03:34:27;;;;;;;17.73;14.10;;;18.50;99.90;;;;;;5052773;28;20413;-74
2022/06/18 03:36:53;;;;;;;16.38;14.40;;;18.40;99.90;;;;;;5097963;28;20393;-75
2022/06/18 03:39:19;;;;;;;17.17;14.48;;;18.30;99.90;;;;;;5109409;28;20977;-74
2022/06/18 03:41:44;;;;;;;17.53;14.37;;;18.30;99.90;;;;;;5106616;28;20404;-75
2022/06/18 03:44:11;;;;;;;17.20;14.90;;;18.20;99.90;;;;;;5107009;28;20502;-74
2022/06/18 03:46:39;;;;;;;18.58;15.23;;;18.20;99.90;;;;;;5051346;28;20864;-75
2022/06/18 03:49:06;;;;;;;21.90;15.63;;;18.10;99.90;;;;;;5108272;28;20966;-74
2022/06/18 03:51:33;;;;;;;19.33;15.07;;;18.10;99.90;;;;;;5103249;28;20412;-75
2022/06/18 03:53:59;;;;;;;19.25;15.73;;;18.10;99.90;;;;;;5108398;28;20392;-75
2022/06/18 03:56:30;;;;;;;19.83;16.45;;;18.10;99.90;;;;;;5080143;28;20582;-75
2022/06/18 03:58:56;;;;;;;21.23;16.33;;;18.00;99.90;;;;;;5001263;28;20457;-75
2022/06/18 04:01:25;;;;;;;23.92;17.40;;;17.90;99.90;;;;;;5055838;28;20980;-74
2022/06/18 04:03:51;;;;;;;21.60;17.33;;;17.90;99.90;;;;;;5105790;28;20427;-75
2022/06/18 04:06:17;;;;;;;22.90;17.70;;;17.90;99.90;;;;;;5053171;28;20876;-74
2022/06/18 04:08:43;;;;;;;23.30;17.80;;;17.90;99.90;;;;;;5107848;28;20501;-75
2022/06/18 04:11:10;;;;;;;24.42;18.08;;;17.90;99.90;;;;;;5105935;28;20408;-75
2022/06/18 04:13:36;;;;;;;25.80;18.55;;;17.90;99.90;;;;;;5087948;28;20408;-75
2022/06/18 04:16:01;;;;;;;27.17;19.35;;;17.90;99.90;;;;;;5015258;28;20412;-74
2022/06/18 04:18:28;;;;;;;23.40;18.83;;;17.90;99.90;;;;;;5006938;28;20405;-75
2022/06/18 04:20:54;;;;;;;24.00;19.58;;;17.90;99.90;;;;;;5066301;28;21051;-75
2022/06/18 04:23:20;;;;;;;25.80;19.42;;;17.90;99.90;;;;;;5014562;28;21042;-75
2022/06/18 04:25:46;;;;;;;24.50;19.50;;;17.90;99.90;;;;;;4991033;28;20405;-75
2022/06/18 04:28:13;;;;;;;25.63;19.52;;;17.90;99.90;;;;;;5008393;28;20959;-74
2022/06/18 04:30:39;;;;;;;27.35;19.80;;;17.90;99.90;;;;;;5011339;28;20460;-74
2022/06/18 04:33:05;;;;;;;26.08;19.92;;;17.90;99.90;;;;;;5015272;28;21011;-75
2022/06/18 04:35:32;;;;;;;27.23;20.25;;;17.90;99.90;;;;;;4989254;28;20447;-74
2022/06/18 04:37:57;;;;;;;26.85;20.58;;;17.90;99.90;;;;;;5005506;28;20458;-74
2022/06/18 04:40:31;;;;;;;24.63;20.00;;;17.90;99.90;;;;;;5007969;28;20417;-75
2022/06/18 04:43:02;;;;;;;27.50;20.95;;;17.90;99.90;;;;;;5006264;28;20440;-75
2022/06/18 04:45:29;;;;;;;30.15;19.90;;;18.00;99.90;;;;;;5007208;28;20409;-74
2022/06/18 04:47:56;;;;;;;24.27;19.83;;;18.00;99.90;;;;;;5007597;28;20974;-75
2022/06/18 04:50:26;;;;;;;27.33;20.75;;;18.00;99.90;;;;;;5108190;28;20959;-75
2022/06/18 04:52:51;;;;;;;24.52;19.60;;;18.10;99.90;;;;;;5087840;28;20404;-75
2022/06/18 04:55:17;;;;;;;28.38;20.42;;;18.10;99.90;;;;;;5107971;28;20437;-74
2022/06/18 04:57:43;;;;;;;26.95;20.17;;;18.20;99.90;;;;;;5106885;28;20435;-74
2022/06/18 05:00:10;;;;;;;27.80;20.15;;;18.20;99.90;;;;;;5106983;28;20396;-75
2022/06/18 05:02:37;;;;;;;24.02;19.50;;;18.20;99.90;;;;;;5101386;28;20473;-74
2022/06/18 05:05:06;;;;;;;28.02;20.17;;;18.20;99.90;;;;;;5077029;28;20407;-74
2022/06/18 05:07:31;;;;;;;28.43;20.60;;;18.20;99.90;;;;;;5012878;28;20799;-74
2022/06/18 05:09:57;;;;;;;28.90;20.80;;;18.30;99.90;;;;;;5007243;28;20404;-74
2022/06/18 05:12:23;;;;;;;24.37;19.17;;;18.30;99.90;;;;;;5006418;28;20813;-74
2022/06/18 05:14:49;;;;;;;28.08;20.15;;;18.30;99.90;;;;;;5005287;28;21197;-74
2022/06/18 05:17:26;;;;;;;25.70;19.27;;;18.30;99.90;;;;;;5074458;28;20400;-75
2022/06/18 05:19:52;;;;;;;27.52;19.67;;;18.40;99.90;;;;;;5107079;28;20411;-74
2022/06/18 05:22:18;;;;;;;25.98;18.75;;;18.40;99.90;;;;;;5102342;28;20454;-74
2022/06/18 05:24:44;;;;;;;25.40;19.10;;;18.40;99.90;;;;;;5106170;28;20894;-75
2022/06/18 05:27:27;;;;;;;27.55;18.92;;;18.40;99.90;;;;;;5077966;28;20426;-74
2022/06/18 05:29:53;;;;;;;26.08;18.63;;;18.40;99.90;;;;;;5067422;28;20408;-75
2022/06/18 05:32:19;;;;;;;21.65;17.15;;;18.50;99.90;;;;;;5095957;28;20431;-75
2022/06/18 05:34:45;;;;;;;26.93;17.73;;;18.50;99.90;;;;;;5100973;28;20435;-75
2022/06/18 05:37:17;;;;;;;27.58;17.92;;;18.60;99.90;;;;;;5092106;28;20408;-75
2022/06/18 05:39:42;;;;;;;25.20;17.77;;;18.70;99.90;;;;;;5099164;28;20765;-74
2022/06/18 05:42:08;;;;;;;22.75;17.85;;;18.70;99.90;;;;;;5091339;28;20396;-74
2022/06/18 05:44:35;;;;;;;24.90;17.77;;;18.80;99.90;;;;;;5098081;28;20920;-75
2022/06/18 05:47:01;;;;;;;25.00;17.70;;;18.80;99.90;;;;;;5089980;28;20829;-75
2022/06/18 05:49:27;;;;;;;27.38;18.17;;;18.90;99.90;;;;;;5054816;28;20758;-74
2022/06/18 05:51:52;;;;;;;25.23;17.43;;;18.90;99.90;;;;;;5087544;28;20403;-74
2022/06/18 05:54:18;;;;;;;24.90;17.58;;;19.00;99.90;;;;;;5099229;28;20495;-75
2022/06/18 05:56:44;;;;;;;24.70;17.13;;;19.00;99.90;;;;;;5089337;28;20408;-75
2022/06/18 05:59:11;;;;;;;23.02;16.75;;;19.10;99.90;;;;;;5098211;28;20419;-75
2022/06/18 06:01:37;;;;;;;19.52;14.93;;;19.10;99.90;;;;;;5022971;28;20046;-75
2022/06/18 06:04:03;;;;;;;25.25;14.82;;;19.20;99.90;;;;;;5009584;28;20110;-75
2022/06/18 06:06:29;;;;;;;22.25;14.60;;;19.20;99.90;;;;;;5067961;28;20044;-76
2022/06/18 06:08:54;;;;;;;23.77;14.23;;;19.20;99.90;;;;;;5065565;28;20046;-75
2022/06/18 06:11:29;;;;;;;23.15;13.82;;;19.30;99.90;;;;;;5074097;28;20062;-75
2022/06/18 06:13:56;;;;;;;19.50;12.77;;;19.40;99.90;;;;;;5055915;28;20055;-76
2022/06/18 06:16:22;;;;;;;21.15;12.88;;;19.50;99.90;;;;;;5024625;28;20117;-75
2022/06/18 06:18:48;;;;;;;16.35;11.32;;;19.50;99.90;;;;;;5006595;28;20529;-75
2022/06/18 06:21:14;;;;;;;21.42;12.23;;;19.60;99.90;;;;;;5054741;28;20051;-75
2022/06/18 06:23:39;;;;;;;20.27;11.02;;;19.70;99.90;;;;;;5075618;28;20077;-76
2022/06/18 06:26:31;;;;;;;18.88;11.88;;;19.70;99.90;;;;;;5006263;28;20088;-75
2022/06/18 06:28:56;;;;;;;19.35;10.82;;;19.80;99.90;;;;;;4995876;28;20080;-76
2022/06/18 06:31:22;;;;;;;21.30;10.98;;;19.80;99.90;;;;;;5073260;28;20413;-76
2022/06/18 06:33:48;;;;;;;16.90;10.05;;;19.90;99.90;;;;;;5004173;28;20416;-77
2022/06/18 06:36:13;;;;;;;16.27;9.27;;;20.00;99.90;;;;;;5053322;28;20436;-75
2022/06/18 06:38:40;;;;;;;15.68;8.20;;;20.10;99.90;;;;;;5100107;28;20043;-76
2022/06/18 06:41:11;;;;;;;12.18;7.90;;;20.10;99.90;;;;;;5055469;28;20055;-76
2022/06/18 06:43:37;;;;;;;17.13;8.23;;;20.20;99.90;;;;;;5111371;28;20044;-76
2022/06/18 06:46:02;;;;;;;13.32;7.40;;;20.20;99.90;;;;;;5061954;28;20063;-76
2022/06/18 06:48:28;;;;;;;16.35;7.60;;;20.30;99.90;;;;;;5090857;28;20050;-76
2022/06/18 06:50:54;;;;;;;14.80;7.30;;;20.30;99.90;;;;;;5112327;28;20031;-76
2022/06/18 06:53:20;;;;;;;17.58;8.77;;;20.40;99.90;;;;;;5098185;28;20058;-75
2022/06/18 06:58:29;;;;;;;;;;;20.50;99.90;;;;;;5035738;28;20047;-76
2022/06/18 07:00:57;;;;;;;15.45;8.02;;;20.60;99.90;;;;;;5112209;28;19924;-75
2022/06/18 07:03:29;;;;;;;17.40;8.23;;;20.60;99.90;;;;;;5110694;28;20769;-75
2022/06/18 07:05:56;;;;;;;19.23;8.20;;;20.70;99.90;;;;;;5043834;28;20158;-76
2022/06/18 07:08:22;;;;;;;11.93;7.85;;;20.70;99.90;;;;;;5079757;28;20029;-75
2022/06/18 07:10:49;;;;;;;14.85;6.80;;;20.70;99.90;;;;;;5073620;28;20397;-75
2022/06/18 07:13:15;;;;;;;11.90;5.93;;;20.70;99.90;;;;;;5110483;28;20039;-76
2022/06/18 07:15:41;;;;;;;14.60;5.22;;;20.70;99.90;;;;;;5111278;28;20043;-76
2022/06/18 07:18:19;;;;;;;12.18;4.85;;;20.70;99.90;;;;;;5012535;28;20578;-76
2022/06/18 07:20:44;;;;;;;11.95;5.38;;;20.70;99.90;;;;;;5010927;28;20515;-75
2022/06/18 07:23:11;;;;;;;6.40;3.42;;;20.70;99.90;;;;;;5010121;28;20049;-76
2022/06/18 07:25:37;;;;;;;11.77;4.18;;;20.80;99.90;;;;;;5013027;28;20419;-76
2022/06/18 07:28:03;;;;;;;8.35;3.15;;;20.80;99.90;;;;;;5010268;28;20103;-76
2022/06/18 07:30:29;;;;;;;8.93;3.90;;;20.80;99.90;;;;;;5014424;28;20074;-76
2022/06/18 07:32:54;;;;;;;7.00;3.25;;;20.90;99.90;;;;;;5010167;28;20042;-75
2022/06/18 07:35:22;;;;;;;8.98;3.20;;;20.90;99.90;;;;;;5013400;28;20046;-76
2022/06/18 07:37:49;;;;;;;5.28;2.80;;;21.00;99.90;;;;;;5010679;28;20064;-76
2022/06/18 07:40:15;;;;;;;8.55;2.90;;;21.10;99.90;;;;;;5009564;28;20050;-75
2022/06/18 07:42:44;;;;;;;8.75;3.13;;;21.10;99.90;;;;;;5008635;28;20052;-75
2022/06/18 07:45:21;;;;;;;8.93;3.83;;;21.10;99.90;;;;;;5009801;28;20049;-76
2022/06/18 07:47:48;;;;;;;8.48;3.75;;;21.20;99.90;;;;;;5009495;28;20046;-75
2022/06/18 07:50:15;;;;;;;7.00;3.78;;;21.20;99.90;;;;;;5009919;28;20148;-75
2022/06/18 07:52:41;;;;;;;9.75;3.97;;;21.30;99.90;;;;;;5009146;28;20060;-75
2022/06/18 07:55:10;;;;;;;8.88;3.95;;;21.30;99.90;;;;;;5009967;28;20042;-75
2022/06/18 07:57:36;;;;;;;8.18;3.72;;;21.40;99.90;;;;;;5009110;28;20496;-75
2022/06/18 08:00:04;;;;;;;7.75;3.38;;;21.40;99.90;;;;;;5009384;28;20065;-75
2022/06/18 08:02:30;;;;;;;10.63;3.88;;;21.50;99.90;;;;;;5009357;28;20049;-75
2022/06/18 08:04:55;;;;;;;9.88;3.95;;;21.50;99.90;;;;;;5011257;28;20045;-76
2022/06/18 08:07:21;;;;;;;8.02;3.38;;;21.60;99.90;;;;;;5009974;28;20484;-75
2022/06/18 08:09:47;;;;;;;9.90;3.80;;;21.70;99.90;;;;;;5031301;28;20754;-76
2022/06/18 08:12:12;;;;;;;10.68;3.63;;;21.80;99.90;;;;;;5041498;28;20087;-76
2022/06/18 08:14:38;;;;;;;9.35;4.35;;;21.80;99.90;;;;;;5012996;28;20496;-77
2022/06/18 08:17:04;;;;;;;8.67;4.07;;;21.90;99.90;;;;;;5022045;28;20786;-77
2022/06/18 08:19:29;;;;;;;7.68;3.40;;;21.90;99.90;;;;;;5036979;28;20043;-75
2022/06/18 08:21:55;;;;;;;8.20;3.05;;;21.90;99.90;;;;;;5013055;28;20141;-77
2022/06/18 08:24:22;;;;;;;8.48;3.08;;;21.90;99.90;;;;;;5017884;28;20054;-76
2022/06/18 08:26:50;;;;;;;6.07;2.08;;;21.90;99.90;;;;;;5060645;28;20126;-76
2022/06/18 08:29:20;;;;;;;8.80;3.08;;;21.90;99.90;;;;;;5040808;28;20040;-74
2022/06/18 08:31:46;;;;;;;8.68;3.53;;;22.00;99.90;;;;;;5058976;28;20115;-74
2022/06/18 08:34:12;;;;;;;8.55;2.13;;;22.00;99.90;;;;;;5031891;28;20082;-75
2022/06/18 08:36:39;;;;;;;6.07;2.45;;;22.10;99.90;;;;;;5104873;27;20034;-75
2022/06/18 08:39:06;;;;;;;8.70;3.22;;;22.20;99.90;;;;;;5089004;28;20051;-75
2022/06/18 08:41:40;;;;;;;9.75;3.63;;;22.30;99.90;;;;;;5041885;28;20461;-76
2022/06/18 08:44:24;;;;;;;5.70;2.90;;;22.40;99.90;;;;;;5039559;28;20048;-76
2022/06/18 08:47:04;;;;;;;11.45;3.85;;;22.40;99.90;;;;;;5093870;28;20124;-75
2022/06/18 08:49:43;;;;;;;7.78;3.17;;;22.40;99.90;;;;;;5106936;28;20136;-76
2022/06/18 08:52:26;;;;;;;6.72;2.67;;;22.40;99.90;;;;;;5091222;28;20047;-76
2022/06/18 08:55:16;;;;;;;10.20;2.38;;;22.30;99.90;;;;;;5096134;28;20046;-76
2022/06/18 08:57:55;;;;;;;6.72;2.00;;;22.40;99.90;;;;;;5086266;28;20056;-75
2022/06/18 09:00:40;;;;;;;5.05;1.52;;;22.40;99.90;;;;;;5057902;28;20417;-75
2022/06/18 09:03:12;;;;;;;5.15;1.00;;;22.50;99.90;;;;;;5033969;28;20825;-75
2022/06/18 09:05:47;;;;;;;7.60;1.08;;;22.50;99.90;;;;;;5076625;28;20031;-76
2022/06/18 09:08:12;;;;;;;2.97;1.08;;;22.60;99.90;;;;;;5083712;28;20046;-75
2022/06/18 09:10:53;;;;;;;3.05;0.93;;;22.50;99.90;;;;;;5091660;28;20035;-76
2022/06/18 09:13:36;;;;;;;6.57;0.85;;;22.60;99.90;;;;;;5109050;28;20050;-75
2022/06/18 09:16:08;;;;;;;1.73;0.67;;;22.70;99.90;;;;;;5035987;28;20533;-76
2022/06/18 09:18:42;;;;;;;2.00;0.77;;;22.80;99.90;;;;;;5060522;28;20811;-76
2022/06/18 09:21:10;;;;;;;;;;;22.90;99.90;;;;;;5032096;28;20083;-76
2022/06/18 09:24:02;;;;;;;3.22;1.08;;;23.00;99.90;;;;;;5109646;28;20014;-75
2022/06/18 09:26:45;;;;;;;4.50;0.70;;;23.20;99.90;;;;;;5080636;28;20104;-75
2022/06/18 09:29:19;;;;;;;2.92;1.00;;;23.30;99.90;;;;;;5050645;28;20416;-75
2022/06/18 09:32:13;;;;;;;3.25;0.75;;;23.30;99.90;;;;;;5107962;28;20409;-75
2022/06/18 09:34:45;;;;;;;;;;;23.40;99.90;;;;;;5081390;28;20041;-76
2022/06/18 09:37:15;;;;;;;;;;;23.50;99.90;;;;;;5007829;28;19926;-76
2022/06/18 09:39:42;;;;;;;;;;;23.70;99.90;;;;;;5060493;28;19920;-76
2022/06/18 09:42:13;;;;;;;;;;;23.80;99.90;;;;;;5058887;28;19921;-76
2022/06/18 09:44:39;;;;;;;;;;;24.00;99.90;;;;;;5008514;28;19922;-75
2022/06/18 09:47:08;;;;;;;;;;;24.10;99.90;;;;;;5006029;28;19921;-74
2022/06/18 09:49:33;;;;;;;;;;;24.30;99.90;;;;;;5006795;28;19957;-75
2022/06/18 09:54:32;;;;;;;;;;;24.50;99.90;;;;;;5005349;28;19928;-76
2022/06/18 09:56:59;;;;;;;;;;;24.60;99.30;;;;;;5040418;28;19923;-74
2022/06/18 09:59:35;;;;;;;;;;;24.60;99.30;;;;;;5061899;28;19932;-74
2022/06/18 10:02:01;;;;;;;;;;;24.60;99.90;;;;;;5060429;28;20386;-75
2022/06/18 10:07:11;;;;;;;;;;;24.90;99.30;;;;;;5019013;28;19921;-75
2022/06/18 10:09:40;;;;;;;;;;;25.20;98.20;;;;;;5028379;28;19974;-75
2022/06/18 10:12:17;;;;;;;;;;;25.30;98.00;;;;;;5022017;28;19970;-75
2022/06/18 10:14:43;;;;;;;;;;;25.50;97.30;;;;;;5042412;28;19933;-76
2022/06/18 10:17:27;;;;;;;;;;;25.70;97.90;;;;;;5113374;27;19920;-76
2022/06/18 10:19:58;;;;;;;;;;;25.80;97.70;;;;;;5073939;27;19926;-76
2022/06/18 10:22:43;;;;;;;;;;;25.70;96.80;;;;;;5049486;28;19922;-75
2022/06/18 10:25:27;;;;;;;;;;;25.80;95.90;;;;;;5094489;28;19966;-73
2022/06/18 10:28:24;;;;;;;;;;;26.10;96.40;;;;;;5111189;28;20415;-73
2022/06/18 10:30:50;;;;;;;;;;;26.20;94.90;;;;;;4971507;28;19922;-75
2022/06/18 10:33:21;;;;;;;;;;;26.30;94.10;;;;;;5058630;28;19979;-74
2022/06/18 10:35:51;;;;;;;;;;;26.40;93.80;;;;;;5052667;28;19926;-74
2022/06/18 10:38:26;;;;;;;;;;;26.50;94.30;;;;;;4993450;28;19928;-74
2022/06/18 10:41:00;;;;;;;;;;;26.60;94.20;;;;;;5077641;28;20303;-75
2022/06/18 10:43:38;;;;;;;;;;;26.80;93.80;;;;;;5041287;28;19925;-74
2022/06/18 10:46:13;;;;;;;;;;;26.80;92.40;;;;;;5049320;28;20000;-74
2022/06/18 10:48:43;;;;;;;;;;;26.90;93.10;;;;;;5013764;28;19921;-74
2022/06/18 10:51:13;;;;;;;;;;;27.10;92.30;;;;;;5029813;28;19921;-74
2022/06/18 10:53:48;;;;;;;;;;;27.30;91.40;;;;;;5046725;28;19920;-74
2022/06/18 10:56:15;;;;;;;;;;;27.40;91.50;;;;;;5019559;28;19925;-74
2022/06/18 10:58:51;;;;;;;;;;;27.50;91.50;;;;;;5019541;28;19921;-74
2022/06/18 11:01:19;;;;;;;;;;;27.60;90.30;;;;;;5012351;28;20302;-74
2022/06/18 11:03:53;;;;;;;;;;;27.70;90.60;;;;;;5038456;28;19932;-74
2022/06/18 11:06:18;;;;;;;;;;;27.80;90.50;;;;;;5030189;28;19922;-74
2022/06/18 11:08:52;;;;;;;;;;;27.70;90.70;;;;;;5012211;28;20272;-75
2022/06/18 11:11:20;;;;;;;;;;;27.70;90.20;;;;;;5013852;28;19928;-74
2022/06/18 11:13:48;;;;;;;;;;;27.80;90.50;;;;;;5011928;28;19925;-74
2022/06/18 11:16:16;;;;;;;;;;;27.70;89.70;;;;;;5033418;28;20302;-74
2022/06/18 11:18:46;;;;;;;;;;;27.70;89.20;;;;;;5016651;28;19921;-74
2022/06/18 11:21:14;;;;;;;;;;;27.60;89.70;;;;;;5011587;28;19922;-74
2022/06/18 11:23:45;;;;;;;;;;;27.50;87.30;;;;;;5008058;28;20012;-74
2022/06/18 11:26:15;;;;;;;;;;;27.30;88.40;;;;;;5041110;28;20297;-74
2022/06/18 11:28:46;;;;;;;;;;;27.20;88.80;;;;;;5022815;28;20379;-74
2022/06/18 11:31:20;;;;;;;;;;;27.30;89.20;;;;;;5053421;28;20289;-74
2022/06/18 11:33:55;;;;;;;;;;;27.40;87.20;;;;;;5025276;28;20062;-74
2022/06/18 11:36:31;;;;;;;;;;;27.60;84.00;;;;;;5062261;28;20389;-75
2022/06/18 11:38:58;;;;;;;;;;;27.80;84.80;;;;;;5078064;28;20289;-74
2022/06/18 11:41:32;;;;;;;;;;;27.80;83.90;;;;;;5082026;28;19919;-73
2022/06/18 11:44:04;;;;;;;;;;;27.90;83.20;;;;;;5078828;28;19926;-73
2022/06/18 11:46:33;;;;;;;;;;;28.00;84.60;;;;;;5111407;27;19926;-74
2022/06/18 11:49:07;;;;;;;;;;;28.10;84.70;;;;;;5107939;28;19978;-74
2022/06/18 11:51:36;;;;;;;;;;;28.20;85.80;;;;;;5043986;28;19921;-74
2022/06/18 11:54:20;;;;;;;;;;;28.30;83.20;;;;;;5029996;28;19924;-74
2022/06/18 11:56:51;;;;;;;;;;;28.30;81.80;;;;;;5040677;28;19932;-74
2022/06/18 11:59:32;;;;;;;;;;;28.30;82.70;;;;;;5070983;28;19919;-74
2022/06/18 12:02:19;;;;;;;;;;;28.30;80.80;;;;;;5106317;28;19920;-74
2022/06/18 12:04:53;;;;;;;;;;;28.30;78.60;;;;;;5106058;28;19920;-74
2022/06/18 12:07:31;;;;;;;;;;;28.30;79.30;;;;;;5072150;27;19928;-74
2022/06/18 12:09:57;;;;;;;;;;;28.40;76.80;;;;;;5039095;28;19919;-74
2022/06/18 12:12:41;;;;;;;;;;;28.30;77.90;;;;;;5093499;28;19930;-74
2022/06/18 12:15:25;;;;;;;;;;;28.20;77.10;;;;;;5032299;28;19920;-74
2022/06/18 12:18:02;;;;;;;;;;;28.20;76.00;;;;;;5083016;28;20394;-74
2022/06/18 12:20:40;;;;;;;;;;;28.30;76.90;;;;;;5053577;28;19928;-74
2022/06/18 12:23:08;;;;;;;;;;;28.50;75.70;;;;;;5008893;28;19932;-74
2022/06/18 12:25:38;;;;;;;;;;;28.60;76.20;;;;;;5008064;28;19968;-74
2022/06/18 12:28:24;;;;;;;;;;;28.70;75.10;;;;;;5029813;28;20289;-73
2022/06/18 12:30:56;;;;;;;;;;;28.70;72.70;;;;;;5032253;28;19973;-75
2022/06/18 12:33:36;;;;;;;;;;;28.70;72.70;;;;;;5055793;28;20461;-74
2022/06/18 12:36:11;;;;;;;;;;;28.80;73.00;;;;;;5054244;28;19927;-74
2022/06/18 12:38:37;;;;;;;;;;;28.80;72.60;;;;;;5038635;28;19922;-74
2022/06/18 12:41:07;;;;;;;;;;;28.70;73.90;;;;;;5044897;28;19927;-74
2022/06/18 12:43:45;;;;;;;;;;;28.70;73.60;;;;;;5050305;28;19921;-74
2022/06/18 12:46:27;;;;;;;;;;;28.70;74.40;;;;;;5066047;28;19919;-74
2022/06/18 12:49:04;;;;;;;;;;;28.80;71.00;;;;;;5017275;28;19968;-74
2022/06/18 12:51:42;;;;;;;;;;;28.80;71.00;;;;;;5007455;28;19925;-74
2022/06/18 12:54:17;;;;;;;;;;;28.80;69.70;;;;;;4995516;28;19922;-74
2022/06/18 12:56:47;;;;;;;;;;;28.70;70.20;;;;;;5009146;28;19931;-73
2022/06/18 12:59:33;;;;;;;;;;;28.50;69.90;;;;;;5006977;28;20008;-74
2022/06/18 13:02:18;;;;;;;;;;;28.40;69.00;;;;;;5009895;28;20413;-75
2022/06/18 13:04:46;;;;;;;;;;;28.30;68.70;;;;;;5008649;28;19933;-74
2022/06/18 13:07:11;;;;;;;;;;;28.40;68.50;;;;;;5017228;28;20046;-74
2022/06/18 13:09:55;;;;;;;;;;;28.40;68.60;;;;;;5009942;28;20070;-75
2022/06/18 13:12:41;;;;;;;;;;;28.60;69.00;;;;;;5077956;28;19990;-74
2022/06/18 13:15:28;;;;;;;;;;;28.60;65.90;;;;;;5031579;28;19945;-73
2022/06/18 13:17:56;;;;;;;;;;;28.60;66.10;;;;;;5108442;28;20149;-74
2022/06/18 13:20:25;;;;;;;;;;;28.80;63.50;;;;;;5096695;28;20491;-74
2022/06/18 13:22:51;;;;;;;;;;;28.70;64.10;;;;;;5107136;28;19926;-74
2022/06/18 13:28:13;;;;;;;;;;;28.50;62.90;;;;;;5104847;28;19919;-74
2022/06/18 13:31:00;;;;;;;;;;;28.50;62.60;;;;;;5098211;28;19979;-73
2022/06/18 13:33:33;;;;;;;;;;;28.50;63.00;;;;;;5105530;28;19923;-74
2022/06/18 13:36:13;;;;;;;;;;;28.50;61.90;;;;;;5042387;28;19934;-74
2022/06/18 13:38:57;;;;;;;;;;;28.60;63.20;;;;;;5107166;28;20002;-74
2022/06/18 13:41:28;;;;;;;;;;;28.40;60.00;;;;;;5009085;28;20438;-74